Halfway's Hourly Summary for Monday, May 14, 2018
Hour Temp
(f)
RH
(%)
Solar Rad.
(MJ/m2)
Rainfall
(in)
Wind
(mph)
5/14/2018 12:00 AM 70 21 0 0 6.84
5/14/2018 1:00 AM 72 27 0 0 9.74
5/14/2018 2:00 AM 73 53 0 0 11.85
5/14/2018 3:00 AM 71 57 0 0 9.08
5/14/2018 4:00 AM 68 60 0 0 6.91
5/14/2018 5:00 AM 65 64 0 0 4.57
5/14/2018 6:00 AM 62 70 0 0 5.55
5/14/2018 7:00 AM 60 75 0.01 0 4.79
5/14/2018 8:00 AM 60 74 0.29 0 6.04
5/14/2018 9:00 AM 68 65 1.06 0 11.38
5/14/2018 10:00 AM 73 58 1.85 0 14.87
5/14/2018 11:00 AM 77 42 2.64 0 14.18
5/14/2018 12:00 PM 82 23 3.27 0 10.59
5/14/2018 1:00 PM 85 19 2.55 0 8.01
5/14/2018 2:00 PM 86 20 2.69 0 8.16
5/14/2018 3:00 PM 87 19 3.35 0 7.34
5/14/2018 4:00 PM 89 18 3.07 0 9.64
5/14/2018 5:00 PM 85 19 0.55 0 11.13
5/14/2018 6:00 PM 83 16 1.24 0 6.07
5/14/2018 7:00 PM 85 16 1.49 0 11.67
5/14/2018 8:00 PM 81 25 0.67 0 14.58
5/14/2018 9:00 PM 73 39 0.05 0 17.85
5/14/2018 10:00 PM 71 43 0 0 15.98
5/14/2018 11:00 PM 69 45 0 0 17.42
Data Summary 74 40 24.78 0.00 10.18